Airfield :
LOGIN :

Register | Disclaimer

   EN    FR    IT 

 










Legend :    VFR   Marginal VFR   IFR   Intensive IFR   Very Intensive IFR
Visi :
Ceiling :
>= 8 km
>= 3000ft
5 to 8 km
1000 to 3000 ft
1500m to 5 km
500 to 1000 ft
800 to 1500m
200 to 500 ft
< 800m
< 200 ft
Symbols :   Thunderstorms  Fog  Heavy snow  Heavy precipitations  Wind > 20 kt
SIGMETs :     Misc.  Thunderstorms  Icing  Turbulence  Mountain Waves  Volcanic Ashes






- Airport Elevation : 26 ft
- IATA code : BIA


LFKB - Bastia

CURRENT METAR :
  • 040000Z AUTO 18004KT 160V220 CAVOK 22/15 Q1016 NOSIG

EXPIRED METARs :
  • 031530Z AUTO 03006KT 350V060 CAVOK 30/18 Q1016 NOSIG
  • 032330Z AUTO 22002KT CAVOK 21/18 Q1016 NOSIG
  • 032300Z AUTO VRB02KT CAVOK 21/18 Q1016 NOSIG
  • 032230Z AUTO 19003KT 170V230 CAVOK 22/19 Q1016 NOSIG
  • 032200Z AUTO 13004KT CAVOK 23/20 Q1016 NOSIG

TAF TAF LFKB
Valid from the 03 at 21:00 until the 04 at 21:00 UTC


032000Z 0321/0421 VRB03KT CAVOK TX34/0413Z TN21/0404Z
BECMG 0407/0409 05010KT
BECMG 0419/0421 VRB03KT
ATIS : +33 4 95 59 19 40



MET'MAP, your aeronautical weather chart ! - Copyright ORBIFLY December 2007 - Disclaimer

ORBIFLY MET'MAP TEAM :

Programming & Development : Alexandra Zaïnal
Original concept : Baudouin d'Aumeries
Technical & hardware support : Manuel Goepfert
Assistance : Marc-Olivier Méhu




SOURCES & CREDITS :

   NOAA